Tanais — UBLF2 — position and weather

sailwx.info

Track history (hours):
 
Tides and Currents Weather Stations Pressure Air Temp Water Temp Dewpoint Dewpoint Depression Visibility Wind Speed Wind Dir Waves Ship Positions

Tanais

Last reported at 2018-Jun-07 15:34 UTC. Time now 2018-Jun-21 16:32 UTC.
Position N 45°31' E 036°46'.
Warning: this ship's position is 14 days out of date.

Length 139 m; draft 3.4 m.

Type: Cargo ship. MMSI: 273330220.

Date/timePositionNaut miles runAvg speedWind from/ knotsBaromVisibWave heightAir tempDewpointWater temp
2018-Jun-07 15:34N 45°31' E 036°46'110.1
2018-Jun-07 15:30N 45°31' E 036°45'5 9.6
2018-Jun-07 15:00N 45°27' E 036°42'5 9.7
2018-Jun-07 14:30N 45°22' E 036°40'4 7.6
2018-Jun-07 14:00N 45°20' E 036°35'5 9.3
2018-Jun-07 13:30N 45°18' E 036°29'4 7.7
2018-Jun-07 13:00N 45°14' E 036°29'3 6.1
2018-Jun-07 12:28N 45°11' E 036°30'0 0.0
2018-Jun-07 11:55N 45°11' E 036°30'4 5.5
2018-Jun-07 11:14N 45°07' E 036°30'193 9.3
2018-Jun-06 14:34N 43°08' E 032°60'1 9.9
2018-Jun-06 14:28N 43°07' E 032°59'  
Track history (hours):
 
Tides and Currents Weather Stations Pressure Air Temp Water Temp Dewpoint Dewpoint Depression Visibility Wind Speed Wind Dir Waves Ship Positions

Tanais

Last reported at 2018-Jun-07 15:34 UTC. Time now 2018-Jun-21 16:32 UTC.
Position N 45°31' E 036°46'.
Warning: this ship's position is 14 days out of date.

Length 139 m; draft 3.4 m.

Type: Cargo ship. MMSI: 273330220.

Date/timePositionNaut miles runAvg speedWind from/ knotsBaromVisibWave heightAir tempDewpointWater temp
2018-Jun-07 15:34N 45°31' E 036°46'110.1
2018-Jun-07 15:30N 45°31' E 036°45'5 9.6
2018-Jun-07 15:00N 45°27' E 036°42'5 9.7
2018-Jun-07 14:30N 45°22' E 036°40'4 7.6
2018-Jun-07 14:00N 45°20' E 036°35'5 9.3
2018-Jun-07 13:30N 45°18' E 036°29'4 7.7
2018-Jun-07 13:00N 45°14' E 036°29'3 6.1
2018-Jun-07 12:28N 45°11' E 036°30'0 0.0
2018-Jun-07 11:55N 45°11' E 036°30'4 5.5
2018-Jun-07 11:14N 45°07' E 036°30'193 9.3
2018-Jun-06 14:34N 43°08' E 032°60'1 9.9
2018-Jun-06 14:28N 43°07' E 032°59'  

Dump ship's entire track history